Time;durP1;ratioP1;P1;durP2;ratioP2;P2;SDS_P1;SDS_P2;PMS_P1;PMS_P2;Temp;Humidity;BMP_temperature;BMP_pressure;BME280_temperature;BME280_humidity;BME280_pressure;Samples;Min_cycle;Max_cycle;Signal;HPM_P1;HPM_P2
2023/09/16 00:00:56;;;;;;;;;;;13.40;68.60;;;;;;4119721;28;19921;-83
2023/09/16 00:02:57;;;;;;;;;;;13.40;68.60;;;;;;4120965;28;19949;-83
2023/09/16 00:04:58;;;;;;;;;;;13.40;68.70;;;;;;4102143;28;19921;-83
2023/09/16 00:06:59;;;;;;;;;;;13.40;68.80;;;;;;4117712;28;20029;-83
2023/09/16 00:08:59;;;;;;;;;;;13.40;68.80;;;;;;4117284;28;19929;-82
2023/09/16 00:11:00;;;;;;;;;;;13.40;69.70;;;;;;4118274;28;19914;-83
2023/09/16 00:13:01;;;;;;;;;;;13.30;68.90;;;;;;4120691;28;20733;-82
2023/09/16 00:15:02;;;;;;;;;;;13.40;69.10;;;;;;4121872;28;19921;-83
2023/09/16 00:17:04;;;;;;;;;;;13.30;68.90;;;;;;4116638;28;20487;-83
2023/09/16 00:19:04;;;;;;;;;;;13.30;69.00;;;;;;4120521;28;20415;-84
2023/09/16 00:21:06;;;;;;;;;;;13.30;69.00;;;;;;4103079;28;20337;-83
2023/09/16 00:23:07;;;;;;;;;;;13.40;69.20;;;;;;4118403;28;19957;-82
2023/09/16 00:25:27;;;;;;;;;;;13.30;69.10;;;;;;4118814;28;20481;-82
2023/09/16 00:27:48;;;;;;;;;;;13.30;69.20;;;;;;4121411;28;20498;-83
2023/09/16 00:30:09;;;;;;;;;;;13.40;69.30;;;;;;4117345;28;20753;-82
2023/09/16 00:32:31;;;;;;;;;;;13.30;69.30;;;;;;4119972;28;20473;-83
2023/09/16 00:34:53;;;;;;;;;;;13.30;69.40;;;;;;4116377;28;20533;-83
2023/09/16 00:37:13;;;;;;;;;;;13.20;69.30;;;;;;4120497;28;19977;-83
2023/09/16 00:39:40;;;;;;;;;;;13.20;69.30;;;;;;4121083;28;20517;-83
2023/09/16 00:42:00;;;;;;;;;;;13.20;69.30;;;;;;4126627;28;20384;-83
2023/09/16 00:44:01;;;;;;;;;;;13.30;69.40;;;;;;4119845;28;19963;-81
2023/09/16 00:46:01;;;;;;;;;;;13.20;69.40;;;;;;4114079;28;19918;-83
2023/09/16 00:48:02;;;;;;;;;;;13.10;69.50;;;;;;4116419;28;19918;-82
2023/09/16 00:50:07;;;;;;;;;;;13.10;69.50;;;;;;4114159;28;19917;-82
2023/09/16 00:52:09;;;;;;;;;;;13.10;69.60;;;;;;4114667;28;20434;-82
2023/09/16 00:54:10;;;;;;;;;;;13.20;69.70;;;;;;4129686;28;20071;-83
2023/09/16 00:56:13;;;;;;;;;;;13.10;69.60;;;;;;4132787;28;19981;-83
2023/09/16 00:58:17;;;;;;;;;;;13.20;69.70;;;;;;4133810;28;19917;-84
2023/09/16 01:00:17;;;;;;;;;;;13.20;69.80;;;;;;4119320;28;20032;-83
2023/09/16 01:02:18;;;;;;;;;;;13.10;69.80;;;;;;4120299;28;20331;-83
2023/09/16 01:04:19;;;;;;;;;;;13.10;69.90;;;;;;4117350;28;19929;-83
2023/09/16 01:06:19;;;;;;;;;;;13.20;70.00;;;;;;4122494;28;19918;-83
2023/09/16 01:08:22;;;;;;;;;;;13.10;70.70;;;;;;4118990;28;20412;-83
2023/09/16 01:10:29;;;;;;;;;;;13.20;70.10;;;;;;4118867;28;20370;-85
2023/09/16 01:12:38;;;;;;;;;;;13.10;70.00;;;;;;4113964;28;19973;-84
2023/09/16 01:14:44;;;;;;;;;;;13.20;70.00;;;;;;4126360;28;19964;-83
2023/09/16 01:16:58;;;;;;;;;;;13.10;69.90;;;;;;4120434;28;19922;-83
2023/09/16 01:19:05;;;;;;;;;;;13.10;70.00;;;;;;4120915;28;19926;-83
2023/09/16 01:21:06;;;;;;;;;;;13.10;70.70;;;;;;4121730;28;19926;-84
2023/09/16 01:23:08;;;;;;;;;;;13.10;70.00;;;;;;4127953;28;19914;-83
2023/09/16 01:25:10;;;;;;;;;;;13.10;70.00;;;;;;4132781;28;20291;-83
2023/09/16 01:27:12;;;;;;;;;;;13.10;70.30;;;;;;4124625;28;19914;-83
2023/09/16 01:29:13;;;;;;;;;;;13.10;70.30;;;;;;4102971;28;19973;-84
2023/09/16 01:31:14;;;;;;;;;;;13.10;70.30;;;;;;4117617;28;19940;-83
2023/09/16 01:33:21;;;;;;;;;;;13.10;70.30;;;;;;4120411;28;19922;-84
2023/09/16 01:35:22;;;;;;;;;;;13.10;70.30;;;;;;4120646;28;20304;-82
2023/09/16 01:37:24;;;;;;;;;;;13.10;70.30;;;;;;4110804;28;19929;-83
2023/09/16 01:39:28;;;;;;;;;;;13.10;70.30;;;;;;4132919;28;20183;-83
2023/09/16 01:44:41;;;;;;;;;;;13.10;70.40;;;;;;4121078;28;20713;-84
2023/09/16 01:50:00;;;;;;;;;;;13.00;70.40;;;;;;4264715;23;19962;-84
2023/09/16 01:52:22;;;;;;;;;;;13.00;70.50;;;;;;4121255;28;19969;-83
2023/09/16 01:54:42;;;;;;;;;;;12.90;70.40;;;;;;4124091;28;20490;-84
2023/09/16 01:57:03;;;;;;;;;;;13.00;70.70;;;;;;4125092;28;20311;-84
2023/09/16 01:59:24;;;;;;;;;;;12.90;70.60;;;;;;4118858;28;20320;-85
2023/09/16 02:01:24;;;;;;;;;;;12.90;70.70;;;;;;4108642;28;19925;-83
2023/09/16 02:03:25;;;;;;;;;;;12.90;70.70;;;;;;4108724;28;20029;-83
2023/09/16 02:05:26;;;;;;;;;;;12.90;70.70;;;;;;4114572;28;19910;-84
2023/09/16 02:07:26;;;;;;;;;;;12.90;70.70;;;;;;4106599;28;19925;-84
2023/09/16 02:09:27;;;;;;;;;;;13.00;70.90;;;;;;4103719;28;19965;-83
2023/09/16 02:11:28;;;;;;;;;;;12.90;70.90;;;;;;4123012;28;19928;-83
2023/09/16 02:13:31;;;;;;;;;;;12.90;71.00;;;;;;4107467;28;19996;-83
2023/09/16 02:15:35;;;;;;;;;;;13.00;71.70;;;;;;4110843;28;20024;-83
2023/09/16 02:17:38;;;;;;;;;;;13.00;71.00;;;;;;4105038;28;19946;-83
2023/09/16 02:19:40;;;;;;;;;;;13.00;71.00;;;;;;4104749;28;19922;-84
2023/09/16 02:21:40;;;;;;;;;;;13.00;71.20;;;;;;4088951;28;19918;-83
2023/09/16 02:23:41;;;;;;;;;;;13.10;71.30;;;;;;4108974;28;19926;-83
2023/09/16 02:25:41;;;;;;;;;;;13.00;71.30;;;;;;4107646;28;19976;-83
2023/09/16 02:27:42;;;;;;;;;;;13.00;71.20;;;;;;4104716;28;19950;-83
2023/09/16 02:29:43;;;;;;;;;;;13.00;72.20;;;;;;4103984;28;19924;-83
2023/09/16 02:31:43;;;;;;;;;;;13.00;72.00;;;;;;4107589;28;19918;-83
2023/09/16 02:33:44;;;;;;;;;;;13.00;71.90;;;;;;4106790;28;20016;-83
2023/09/16 02:35:46;;;;;;;;;;;13.00;71.90;;;;;;4107482;28;19933;-83
2023/09/16 02:38:06;;;;;;;;;;;13.00;71.80;;;;;;4107443;28;20494;-83
2023/09/16 02:40:07;;;;;;;;;;;13.10;71.90;;;;;;4119203;28;19976;-84
2023/09/16 02:42:28;;;;;;;;;;;13.00;71.70;;;;;;4106731;28;20569;-83
2023/09/16 02:44:48;;;;;;;;;;;13.00;71.80;;;;;;4108709;28;19921;-84
2023/09/16 02:47:09;;;;;;;;;;;13.00;71.70;;;;;;4105851;28;20277;-83
2023/09/16 02:49:31;;;;;;;;;;;13.10;71.80;;;;;;4104607;28;20383;-84
2023/09/16 02:51:51;;;;;;;;;;;13.10;71.80;;;;;;4102470;28;21599;-84
2023/09/16 02:54:12;;;;;;;;;;;13.10;71.90;;;;;;4117742;28;19922;-83
2023/09/16 02:56:33;;;;;;;;;;;13.10;71.80;;;;;;4107105;28;20600;-83
2023/09/16 02:58:38;;;;;;;;;;;13.10;71.80;;;;;;4106207;28;19914;-83
2023/09/16 03:00:38;;;;;;;;;;;13.10;71.90;;;;;;4104531;28;19997;-83
2023/09/16 03:02:39;;;;;;;;;;;13.10;71.90;;;;;;4123840;28;19922;-83
2023/09/16 03:04:40;;;;;;;;;;;13.00;71.90;;;;;;4108399;28;19918;-84
2023/09/16 03:06:41;;;;;;;;;;;13.10;72.00;;;;;;4091158;28;20434;-83
2023/09/16 03:09:01;;;;;;;;;;;13.00;71.90;;;;;;4106367;28;20009;-83
2023/09/16 03:11:22;;;;;;;;;;;13.00;71.90;;;;;;4107611;28;19967;-82
2023/09/16 03:13:43;;;;;;;;;;;13.00;72.00;;;;;;4108890;28;20033;-83
2023/09/16 03:15:45;;;;;;;;;;;13.00;72.00;;;;;;4108604;28;19910;-83
2023/09/16 03:18:05;;;;;;;;;;;13.10;72.00;;;;;;4106601;28;19944;-83
2023/09/16 03:20:26;;;;;;;;;;;13.00;72.10;;;;;;4111100;28;19925;-84
2023/09/16 03:22:44;;;;;;;;;;;13.00;72.00;;;;;;4108799;28;19918;-83
2023/09/16 03:25:05;;;;;;;;;;;13.00;71.90;;;;;;4111188;28;19937;-83
2023/09/16 03:27:25;;;;;;;;;;;13.00;72.00;;;;;;4110365;28;19918;-83
2023/09/16 03:29:46;;;;;;;;;;;13.10;72.10;;;;;;4106795;28;20395;-84
2023/09/16 03:32:06;;;;;;;;;;;13.00;72.00;;;;;;4113350;28;19990;-84
2023/09/16 03:34:27;;;;;;;;;;;13.00;72.00;;;;;;4136057;28;19960;-86
2023/09/16 03:36:47;;;;;;;;;;;13.00;72.00;;;;;;4107399;28;19971;-83
2023/09/16 03:39:08;;;;;;;;;;;13.10;72.20;;;;;;4103474;28;19918;-83
2023/09/16 03:41:29;;;;;;;;;;;13.00;72.20;;;;;;4108804;28;20105;-83
2023/09/16 03:43:49;;;;;;;;;;;13.10;72.30;;;;;;4104815;28;19918;-83
2023/09/16 03:46:10;;;;;;;;;;;13.10;72.40;;;;;;4105670;28;19965;-83
2023/09/16 03:48:30;;;;;;;;;;;13.10;72.50;;;;;;4106893;28;20408;-84
2023/09/16 03:50:51;;;;;;;;;;;13.10;72.60;;;;;;4106710;28;19923;-85
2023/09/16 03:53:11;;;;;;;;;;;13.10;72.60;;;;;;4117526;28;20041;-85
2023/09/16 03:55:32;;;;;;;;;;;13.10;72.60;;;;;;4104450;28;19918;-82
2023/09/16 03:57:53;;;;;;;;;;;13.20;73.20;;;;;;4105477;28;19926;-83
2023/09/16 04:00:13;;;;;;;;;;;13.10;73.40;;;;;;4118941;28;19933;-82
2023/09/16 04:02:34;;;;;;;;;;;13.10;73.30;;;;;;4105968;28;19946;-85
2023/09/16 04:04:54;;;;;;;;;;;13.10;73.70;;;;;;4101314;28;19918;-83
2023/09/16 04:07:15;;;;;;;;;;;13.20;73.80;;;;;;4122413;28;20033;-83
2023/09/16 04:09:35;;;;;;;;;;;13.10;73.50;;;;;;4116535;28;20217;-82
2023/09/16 04:11:56;;;;;;;;;;;13.20;73.40;;;;;;4134180;28;19941;-85
2023/09/16 04:14:17;;;;;;;;;;;13.10;73.20;;;;;;4108136;28;19922;-85
2023/09/16 04:16:39;;;;;;;;;;;13.10;73.20;;;;;;4118690;28;19933;-85
2023/09/16 04:18:59;;;;;;;;;;;13.20;73.20;;;;;;4109086;28;19946;-83
2023/09/16 04:21:20;;;;;;;;;;;13.20;73.20;;;;;;4107460;28;20042;-83
2023/09/16 04:23:40;;;;;;;;;;;13.20;73.20;;;;;;4104721;28;19923;-83
2023/09/16 04:25:41;;;;;;;;;;;13.20;73.20;;;;;;4109652;28;19922;-84
2023/09/16 04:27:41;;;;;;;;;;;13.20;73.20;;;;;;4108803;28;19953;-83
2023/09/16 04:29:42;;;;;;;;;;;13.20;73.20;;;;;;4111248;28;19953;-83
2023/09/16 04:31:42;;;;;;;;;;;13.20;73.20;;;;;;4110890;28;19926;-83
2023/09/16 04:33:43;;;;;;;;;;;13.20;73.20;;;;;;4122829;28;20004;-83
2023/09/16 04:35:45;;;;;;;;;;;13.20;73.20;;;;;;4108830;28;20056;-83
2023/09/16 04:37:51;;;;;;;;;;;13.20;73.20;;;;;;4105502;28;20414;-85
2023/09/16 04:39:52;;;;;;;;;;;13.20;73.30;;;;;;4106937;28;19932;-86
2023/09/16 04:41:53;;;;;;;;;;;13.20;73.30;;;;;;4109663;28;20001;-85
2023/09/16 04:43:53;;;;;;;;;;;13.20;73.30;;;;;;4109796;28;19925;-85
2023/09/16 04:45:54;;;;;;;;;;;13.20;73.30;;;;;;4107596;28;19969;-85
2023/09/16 04:47:56;;;;;;;;;;;13.20;73.30;;;;;;4090231;28;20396;-85
2023/09/16 04:49:57;;;;;;;;;;;13.20;73.30;;;;;;4107080;28;19922;-83
2023/09/16 04:52:12;;;;;;;;;;;13.30;73.40;;;;;;4109086;28;19918;-82
2023/09/16 04:54:19;;;;;;;;;;;13.20;73.40;;;;;;4119230;28;19957;-84
2023/09/16 04:56:20;;;;;;;;;;;13.10;73.30;;;;;;4116508;28;19918;-84
2023/09/16 04:58:21;;;;;;;;;;;13.20;73.40;;;;;;4109107;28;19993;-84
2023/09/16 05:00:22;;;;;;;;;;;13.30;73.40;;;;;;4120285;28;19918;-84
2023/09/16 05:02:23;;;;;;;;;;;13.30;73.40;;;;;;4110153;28;20539;-84
2023/09/16 05:04:26;;;;;;;;;;;13.30;73.40;;;;;;4108491;28;19977;-83
2023/09/16 05:06:27;;;;;;;;;;;13.30;73.40;;;;;;4111719;28;19918;-84
2023/09/16 05:08:27;;;;;;;;;;;13.30;73.40;;;;;;4123705;28;20738;-82
2023/09/16 05:10:28;;;;;;;;;;;13.20;73.40;;;;;;4125687;28;19941;-84
2023/09/16 05:12:29;;;;;;;;;;;13.30;73.40;;;;;;4129135;28;19977;-84
2023/09/16 05:14:30;;;;;;;;;;;13.30;73.40;;;;;;4119043;28;19921;-83
2023/09/16 05:16:34;;;;;;;;;;;13.20;73.50;;;;;;4108644;28;19922;-84
2023/09/16 05:18:35;;;;;;;;;;;13.30;73.50;;;;;;4109073;28;19922;-83
2023/09/16 05:20:38;;;;;;;;;;;13.30;73.60;;;;;;4111993;28;20391;-84
2023/09/16 05:22:58;;;;;;;;;;;13.20;73.60;;;;;;4107278;28;19919;-83
2023/09/16 05:25:19;;;;;;;;;;;13.30;73.70;;;;;;4108915;28;19927;-84
2023/09/16 05:27:40;;;;;;;;;;;13.40;73.90;;;;;;4107174;28;19934;-84
2023/09/16 05:30:01;;;;;;;;;;;13.30;73.80;;;;;;4108123;28;19940;-83
2023/09/16 05:32:22;;;;;;;;;;;13.30;73.80;;;;;;4118524;28;19918;-84
2023/09/16 05:34:43;;;;;;;;;;;13.30;73.90;;;;;;4106893;28;19918;-83
2023/09/16 05:37:09;;;;;;;;;;;13.40;74.80;;;;;;4106177;28;19925;-83
2023/09/16 05:39:29;;;;;;;;;;;13.30;74.00;;;;;;4105707;28;19922;-84
2023/09/16 05:41:50;;;;;;;;;;;13.40;74.20;;;;;;4107261;28;19930;-84
2023/09/16 05:44:11;;;;;;;;;;;13.40;74.50;;;;;;4108475;28;20088;-84
2023/09/16 05:46:31;;;;;;;;;;;13.50;74.80;;;;;;4104829;28;19957;-86
2023/09/16 05:48:56;;;;;;;;;;;13.50;74.70;;;;;;4103172;28;20013;-85
2023/09/16 05:51:16;;;;;;;;;;;13.50;74.60;;;;;;4119412;28;19989;-84
2023/09/16 05:53:39;;;;;;;;;;;13.60;74.70;;;;;;4108527;28;19965;-85
2023/09/16 05:56:06;;;;;;;;;;;13.70;75.00;;;;;;4120407;28;19925;-83
2023/09/16 05:58:27;;;;;;;;;;;13.70;75.00;;;;;;4103108;28;19953;-85
2023/09/16 06:00:28;;;;;;;;;;;13.90;75.20;;;;;;4106839;28;19998;-85
2023/09/16 06:02:28;;;;;;;;;;;13.80;75.40;;;;;;4103999;28;19925;-85
2023/09/16 06:04:32;;;;;;;;;;;13.90;76.20;;;;;;4104707;28;20423;-84
2023/09/16 06:06:33;;;;;;;;;;;13.90;75.90;;;;;;4108180;28;19927;-85
2023/09/16 06:08:34;;;;;;;;;;;13.90;75.80;;;;;;4127833;28;19933;-83
2023/09/16 06:10:34;;;;;;;;;;;14.00;75.70;;;;;;4116455;28;19922;-83
2023/09/16 06:12:35;;;;;;;;;;;14.10;75.30;;;;;;4105064;28;20372;-83
2023/09/16 06:14:36;;;;;;;;;;;14.10;76.30;;;;;;4110033;28;19922;-83
2023/09/16 06:16:36;;;;;;;;;;;14.10;76.70;;;;;;4105680;28;20001;-83
2023/09/16 06:18:37;;;;;;;;;;;14.20;77.50;;;;;;4106749;28;19922;-82
2023/09/16 06:20:38;;;;;;;;;;;14.20;77.60;;;;;;4090561;28;20706;-83
2023/09/16 06:22:40;;;;;;;;;;;14.30;77.50;;;;;;4102819;28;19921;-83
2023/09/16 06:24:40;;;;;;;;;;;14.30;77.00;;;;;;4101274;28;19922;-83
2023/09/16 06:26:41;;;;;;;;;;;14.40;76.90;;;;;;4110642;28;19925;-83
2023/09/16 06:28:42;;;;;;;;;;;14.40;76.80;;;;;;4103250;28;19928;-83
2023/09/16 06:30:52;;;;;;;;;;;14.50;76.60;;;;;;4121378;28;19922;-84
2023/09/16 06:32:59;;;;;;;;;;;14.60;76.60;;;;;;4107755;28;20022;-83
2023/09/16 06:35:20;;;;;;;;;;;14.60;76.70;;;;;;4108212;28;19921;-85
2023/09/16 06:37:40;;;;;;;;;;;14.70;76.70;;;;;;4103614;28;19933;-85
2023/09/16 06:40:01;;;;;;;;;;;14.70;76.60;;;;;;4104655;28;19922;-84
2023/09/16 06:42:21;;;;;;;;;;;14.80;77.00;;;;;;4106332;28;19918;-86
2023/09/16 06:44:42;;;;;;;;;;;14.90;76.80;;;;;;4107237;28;19921;-83
2023/09/16 06:47:05;;;;;;;;;;;15.00;77.00;;;;;;4105261;28;19930;-83
2023/09/16 06:49:25;;;;;;;;;;;15.10;76.70;;;;;;4108395;28;19922;-84
2023/09/16 06:51:46;;;;;;;;;;;15.10;76.30;;;;;;4104414;28;19937;-84
2023/09/16 06:54:07;;;;;;;;;;;15.20;78.20;;;;;;4107592;28;19924;-87
2023/09/16 06:56:29;;;;;;;;;;;15.30;79.60;;;;;;4105901;28;19923;-84
2023/09/16 06:58:50;;;;;;;;;;;15.30;80.10;;;;;;4112763;28;20486;-84
2023/09/16 07:00:51;;;;;;;;;;;15.40;80.30;;;;;;4110593;28;20083;-83
2023/09/16 07:02:56;;;;;;;;;;;15.50;80.10;;;;;;4109215;28;19914;-84
2023/09/16 07:05:06;;;;;;;;;;;15.60;79.60;;;;;;4113341;28;19997;-84
2023/09/16 07:07:11;;;;;;;;;;;15.60;79.40;;;;;;4111877;28;19918;-84
2023/09/16 07:09:12;;;;;;;;;;;15.70;79.10;;;;;;4106665;28;19968;-85
2023/09/16 07:11:14;;;;;;;;;;;15.70;78.90;;;;;;4108040;28;19922;-84
2023/09/16 07:13:15;;;;;;;;;;;15.80;79.40;;;;;;4107238;28;19941;-85
2023/09/16 07:15:19;;;;;;;;;;;15.80;79.80;;;;;;4089653;28;19926;-84
2023/09/16 07:17:23;;;;;;;;;;;15.90;79.00;;;;;;4110159;28;19918;-85
2023/09/16 07:19:26;;;;;;;;;;;16.00;78.70;;;;;;4105768;28;20277;-85
2023/09/16 07:21:27;;;;;;;;;;;16.00;78.60;;;;;;4107792;28;19921;-86
2023/09/16 07:23:28;;;;;;;;;;;16.10;78.30;;;;;;4104390;28;19918;-84
2023/09/16 07:25:32;;;;;;;;;;;16.10;78.50;;;;;;4105321;28;20324;-85
2023/09/16 07:27:33;;;;;;;;;;;16.20;78.60;;;;;;4106782;28;19920;-86
2023/09/16 07:29:39;;;;;;;;;;;16.20;78.20;;;;;;4107890;28;19918;-85
2023/09/16 07:32:00;;;;;;;;;;;16.30;78.20;;;;;;4104627;28;19918;-86
2023/09/16 07:34:22;;;;;;;;;;;16.40;77.90;;;;;;4106392;28;19918;-85
2023/09/16 07:36:42;;;;;;;;;;;16.50;78.20;;;;;;4119696;28;19928;-85
2023/09/16 07:39:03;;;;;;;;;;;16.60;78.90;;;;;;4106270;28;19929;-86
2023/09/16 07:41:24;;;;;;;;;;;16.60;78.80;;;;;;4102139;28;20005;-85
2023/09/16 07:43:44;;;;;;;;;;;16.70;78.60;;;;;;4106376;28;19960;-85
2023/09/16 07:46:05;;;;;;;;;;;16.70;78.50;;;;;;4112095;28;19973;-85
2023/09/16 07:48:25;;;;;;;;;;;16.90;78.70;;;;;;4108683;28;19961;-85
2023/09/16 07:50:47;;;;;;;;;;;16.90;78.20;;;;;;4114055;28;19926;-85
2023/09/16 07:53:07;;;;;;;;;;;17.00;78.60;;;;;;4129342;28;19910;-82
2023/09/16 07:55:28;;;;;;;;;;;17.00;78.60;;;;;;4131217;28;19914;-86
2023/09/16 07:57:29;;;;;;;;;;;17.10;78.30;;;;;;4132129;28;19922;-86
2023/09/16 07:59:29;;;;;;;;;;;17.10;78.10;;;;;;4131105;28;19925;-86
2023/09/16 08:01:30;;;;;;;;;;;17.20;78.10;;;;;;4130340;28;19922;-87
2023/09/16 08:03:37;;;;;;;;;;;17.30;77.70;;;;;;4132380;28;19911;-87
2023/09/16 08:05:41;;;;;;;;;;;17.30;76.70;;;;;;4131609;28;19934;-87
2023/09/16 08:08:07;;;;;;;;;;;17.40;76.60;;;;;;4132444;28;19961;-86
2023/09/16 08:10:28;;;;;;;;;;;17.30;74.40;;;;;;4127772;28;19914;-84
2023/09/16 08:12:51;;;;;;;;;;;17.40;74.70;;;;;;4121404;28;19922;-87
2023/09/16 08:15:12;;;;;;;;;;;17.50;74.80;;;;;;4109734;28;19996;-86
2023/09/16 08:17:33;;;;;;;;;;;17.50;74.50;;;;;;4125234;28;19933;-86
2023/09/16 08:19:56;;;;;;;;;;;17.60;73.90;;;;;;4110743;28;19922;-87
2023/09/16 08:22:28;;;;;;;;;;;17.60;73.60;;;;;;4110388;28;19932;-84
2023/09/16 08:24:51;;;;;;;;;;;17.70;73.70;;;;;;4108038;28;19918;-85
2023/09/16 08:27:12;;;;;;;;;;;17.70;73.90;;;;;;4119412;28;19989;-85
2023/09/16 08:29:32;;;;;;;;;;;17.90;73.90;;;;;;4107371;28;19918;-85
2023/09/16 08:31:53;;;;;;;;;;;17.80;72.30;;;;;;4107528;28;19934;-85
2023/09/16 08:34:13;;;;;;;;;;;18.00;72.80;;;;;;4107596;28;19989;-86
2023/09/16 08:36:34;;;;;;;;;;;18.10;73.80;;;;;;4110150;28;20005;-85
2023/09/16 08:38:55;;;;;;;;;;;18.10;73.20;;;;;;4110649;28;19925;-85
2023/09/16 08:41:38;;;;;;;;;;;18.20;73.00;;;;;;4106900;28;19953;-84
2023/09/16 08:44:00;;;;;;;;;;;18.30;72.90;;;;;;4112731;28;19925;-85
2023/09/16 08:46:21;;;;;;;;;;;18.40;72.80;;;;;;4111028;28;19925;-85
2023/09/16 08:48:44;;;;;;;;;;;18.40;72.20;;;;;;4118520;28;19918;-85
2023/09/16 08:51:05;;;;;;;;;;;18.50;71.80;;;;;;4109623;28;19976;-86
2023/09/16 08:53:27;;;;;;;;;;;18.60;71.90;;;;;;4106789;28;20037;-88
2023/09/16 08:55:48;;;;;;;;;;;18.80;71.60;;;;;;4107335;28;19918;-87
2023/09/16 08:58:09;;;;;;;;;;;18.90;72.10;;;;;;4124692;28;19925;-89
2023/09/16 09:00:30;;;;;;;;;;;18.90;71.50;;;;;;4121201;28;19993;-88
2023/09/16 09:02:31;;;;;;;;;;;19.00;70.10;;;;;;4105531;28;20323;-86
2023/09/16 09:04:32;;;;;;;;;;;19.10;70.80;;;;;;4103231;28;19925;-88
2023/09/16 09:06:33;;;;;;;;;;;19.20;70.20;;;;;;4106408;28;19914;-86
2023/09/16 09:08:34;;;;;;;;;;;19.20;70.30;;;;;;4101795;28;20346;-86
2023/09/16 09:10:35;;;;;;;;;;;19.30;71.00;;;;;;4100759;28;19914;-87
2023/09/16 09:12:37;;;;;;;;;;;19.40;69.90;;;;;;4107384;28;19957;-86
2023/09/16 09:14:39;;;;;;;;;;;19.40;69.10;;;;;;4106173;28;19918;-86
2023/09/16 09:16:41;;;;;;;;;;;19.50;69.70;;;;;;4121109;28;19930;-86
2023/09/16 09:18:42;;;;;;;;;;;19.60;69.50;;;;;;4119674;28;20385;-87
2023/09/16 09:20:43;;;;;;;;;;;19.60;67.70;;;;;;4102468;28;20024;-86
2023/09/16 09:22:45;;;;;;;;;;;19.70;67.50;;;;;;4117460;28;19918;-88
2023/09/16 09:24:46;;;;;;;;;;;19.80;67.70;;;;;;4102402;28;19914;-86
2023/09/16 09:27:01;;;;;;;;;;;19.80;66.50;;;;;;4101856;28;19918;-86
2023/09/16 09:29:21;;;;;;;;;;;19.90;66.50;;;;;;4103247;28;19929;-86
2023/09/16 09:31:43;;;;;;;;;;;20.00;67.30;;;;;;4102481;28;20041;-86
2023/09/16 09:34:03;;;;;;;;;;;20.10;67.00;;;;;;4104558;28;19928;-87
2023/09/16 09:36:14;;;;;;;;;;;20.20;67.50;;;;;;4118314;28;20354;-85
2023/09/16 09:38:37;;;;;;;;;;;20.10;63.50;;;;;;4104583;28;19922;-87
2023/09/16 09:40:58;;;;;;;;;;;20.30;65.10;;;;;;4102348;28;19993;-85
2023/09/16 09:43:19;;;;;;;;;;;20.30;65.70;;;;;;4104153;28;19918;-87
2023/09/16 09:45:40;;;;;;;;;;;20.40;65.50;;;;;;4099810;28;20118;-86
2023/09/16 09:48:01;;;;;;;;;;;20.40;65.50;;;;;;4102115;28;19965;-86
2023/09/16 09:50:22;;;;;;;;;;;20.50;65.90;;;;;;4102611;28;20032;-86
2023/09/16 09:52:53;;;;;;;;;;;20.60;66.30;;;;;;4107389;28;19934;-86
2023/09/16 09:55:17;;;;;;;;;;;20.60;63.70;;;;;;4103589;28;20424;-88
2023/09/16 09:57:38;;;;;;;;;;;20.70;63.70;;;;;;4104164;28;19977;-86
2023/09/16 09:59:59;;;;;;;;;;;20.70;60.50;;;;;;4120023;28;19917;-86
2023/09/16 10:02:22;;;;;;;;;;;20.80;61.60;;;;;;4107382;28;19918;-87
2023/09/16 10:04:42;;;;;;;;;;;20.80;62.20;;;;;;4114082;28;19922;-87
2023/09/16 10:07:04;;;;;;;;;;;20.90;63.70;;;;;;4106818;28;19922;-87
2023/09/16 10:09:24;;;;;;;;;;;21.00;64.20;;;;;;4106712;28;20025;-86
2023/09/16 10:11:48;;;;;;;;;;;21.00;61.10;;;;;;4106430;28;19984;-86
2023/09/16 10:13:49;;;;;;;;;;;21.00;60.60;;;;;;4104816;28;20349;-87
2023/09/16 10:15:51;;;;;;;;;;;21.10;61.80;;;;;;4103176;28;19922;-87
2023/09/16 10:17:53;;;;;;;;;;;21.10;61.50;;;;;;4121725;28;19926;-87
2023/09/16 10:19:53;;;;;;;;;;;21.10;61.00;;;;;;4124630;28;19914;-88
2023/09/16 10:21:57;;;;;;;;;;;21.10;60.80;;;;;;4113182;28;19918;-88
2023/09/16 10:23:58;;;;;;;;;;;21.10;61.40;;;;;;4128166;28;20057;-87
2023/09/16 10:25:58;;;;;;;;;;;21.10;59.70;;;;;;4117063;28;20372;-87
2023/09/16 10:28:06;;;;;;;;;;;21.20;60.00;;;;;;4106606;28;19922;-89
2023/09/16 10:30:07;;;;;;;;;;;21.20;60.50;;;;;;4105598;28;19934;-87
2023/09/16 10:32:08;;;;;;;;;;;21.20;60.20;;;;;;4109137;28;19937;-87
2023/09/16 10:34:09;;;;;;;;;;;21.30;60.00;;;;;;4103913;28;19918;-88
2023/09/16 10:36:11;;;;;;;;;;;21.30;59.40;;;;;;4109125;28;20097;-87
2023/09/16 10:38:12;;;;;;;;;;;21.30;60.10;;;;;;4105090;28;20009;-88
2023/09/16 10:40:16;;;;;;;;;;;21.30;60.60;;;;;;4105904;28;20382;-87
2023/09/16 10:42:29;;;;;;;;;;;21.40;61.00;;;;;;4100471;28;19965;-85
2023/09/16 10:44:48;;;;;;;;;;;21.40;60.70;;;;;;4095016;28;20567;-88
2023/09/16 10:46:50;;;;;;;;;;;21.40;60.90;;;;;;4104166;28;19948;-86
2023/09/16 10:49:11;;;;;;;;;;;21.40;61.20;;;;;;4115451;28;20032;-87
2023/09/16 10:51:35;;;;;;;;;;;21.40;61.70;;;;;;4103471;28;20009;-87
2023/09/16 10:54:03;;;;;;;;;;;21.40;62.10;;;;;;4100974;28;19980;-86
2023/09/16 10:56:16;;;;;;;;;;;21.40;62.30;;;;;;4101801;28;20020;-88
2023/09/16 10:58:47;;;;;;;;;;;21.50;62.70;;;;;;4104161;28;19931;-87
2023/09/16 11:01:08;;;;;;;;;;;21.40;61.60;;;;;;4109580;28;19922;-89
2023/09/16 11:03:33;;;;;;;;;;;21.40;60.60;;;;;;4115001;28;19956;-87
2023/09/16 11:05:57;;;;;;;;;;;21.40;60.90;;;;;;4107272;28;19914;-89
2023/09/16 11:08:17;;;;;;;;;;;21.40;60.90;;;;;;4103703;28;19933;-87
2023/09/16 11:10:38;;;;;;;;;;;21.50;61.50;;;;;;4105914;28;19918;-87
2023/09/16 11:12:59;;;;;;;;;;;21.40;61.80;;;;;;4099080;28;19914;-87
2023/09/16 11:15:20;;;;;;;;;;;21.40;62.10;;;;;;4100012;28;19922;-86
2023/09/16 11:17:41;;;;;;;;;;;21.50;62.40;;;;;;4103760;28;19930;-89
2023/09/16 11:19:42;;;;;;;;;;;21.50;62.70;;;;;;4105844;28;20064;-89
2023/09/16 11:21:43;;;;;;;;;;;21.50;59.40;;;;;;4090114;28;19926;-87
2023/09/16 11:23:44;;;;;;;;;;;21.50;60.10;;;;;;4105533;28;19951;-85
2023/09/16 11:25:44;;;;;;;;;;;21.60;60.00;;;;;;4103946;28;20403;-87
2023/09/16 11:27:45;;;;;;;;;;;21.60;60.60;;;;;;4103496;28;20423;-86
2023/09/16 11:29:49;;;;;;;;;;;21.70;60.50;;;;;;4116325;28;20455;-88
2023/09/16 11:31:50;;;;;;;;;;;21.70;60.90;;;;;;4105565;28;20008;-87
2023/09/16 11:33:58;;;;;;;;;;;21.70;59.70;;;;;;4107269;28;19941;-86
2023/09/16 11:36:05;;;;;;;;;;;21.70;60.40;;;;;;4085095;28;19949;-87
2023/09/16 11:38:06;;;;;;;;;;;21.80;61.00;;;;;;4114458;28;20687;-87
2023/09/16 11:40:10;;;;;;;;;;;21.80;61.70;;;;;;4116967;28;19917;-88
2023/09/16 11:42:12;;;;;;;;;;;21.80;60.80;;;;;;4101706;28;20509;-87
2023/09/16 11:44:17;;;;;;;;;;;21.80;60.30;;;;;;4104690;28;19922;-86
2023/09/16 11:46:38;;;;;;;;;;;21.90;60.80;;;;;;4102046;28;19923;-86
2023/09/16 11:49:03;;;;;;;;;;;21.90;60.60;;;;;;4101894;28;20529;-88
2023/09/16 11:51:21;;;;;;;;;;;22.00;60.70;;;;;;4105419;28;19922;-87
2023/09/16 11:53:42;;;;;;;;;;;21.90;59.30;;;;;;4100581;28;19925;-87
2023/09/16 11:55:48;;;;;;;;;;;22.10;60.20;;;;;;4115816;28;20018;-86
2023/09/16 11:58:17;;;;;;;;;;;22.10;60.50;;;;;;4098409;28;19929;-87
2023/09/16 12:00:38;;;;;;;;;;;22.10;60.20;;;;;;4101461;28;19922;-87
2023/09/16 12:02:59;;;;;;;;;;;22.20;60.80;;;;;;4103170;28;19922;-87
2023/09/16 12:05:23;;;;;;;;;;;22.20;60.90;;;;;;4103980;28;19925;-86
2023/09/16 12:07:44;;;;;;;;;;;22.30;61.10;;;;;;4104106;28;19918;-87
2023/09/16 12:09:46;;;;;;;;;;;22.30;60.80;;;;;;4118250;28;19924;-87
2023/09/16 12:11:49;;;;;;;;;;;22.30;60.70;;;;;;4121945;28;19957;-87
2023/09/16 12:13:50;;;;;;;;;;;22.40;60.70;;;;;;4121879;28;19934;-88
2023/09/16 12:15:50;;;;;;;;;;;22.40;60.60;;;;;;4123807;28;19926;-87
2023/09/16 12:18:11;;;;;;;;;;;22.50;59.90;;;;;;4115303;28;19930;-89
2023/09/16 12:20:19;;;;;;;;;;;22.50;60.10;;;;;;4105136;28;20332;-87
2023/09/16 12:22:43;;;;;;;;;;;22.50;59.90;;;;;;4107259;28;19997;-87
2023/09/16 12:25:04;;;;;;;;;;;22.60;59.80;;;;;;4103200;28;19922;-87
2023/09/16 12:27:05;;;;;;;;;;;22.60;60.10;;;;;;4109283;28;19918;-87
2023/09/16 12:29:26;;;;;;;;;;;22.60;60.00;;;;;;4106658;28;19918;-88
2023/09/16 12:31:47;;;;;;;;;;;22.70;59.80;;;;;;4116108;28;19926;-87
2023/09/16 12:34:13;;;;;;;;;;;22.70;59.40;;;;;;4104785;28;19976;-87
2023/09/16 12:36:34;;;;;;;;;;;22.70;58.60;;;;;;4107096;28;19961;-87
2023/09/16 12:38:56;;;;;;;;;;;22.70;58.90;;;;;;4104444;28;19933;-87
2023/09/16 12:41:16;;;;;;;;;;;22.70;59.10;;;;;;4105875;28;19925;-87
2023/09/16 12:43:37;;;;;;;;;;;22.60;59.40;;;;;;4106773;28;19918;-89
2023/09/16 12:45:38;;;;;;;;;;;22.50;59.40;;;;;;4108796;28;19956;-87
2023/09/16 12:47:40;;;;;;;;;;;22.50;59.40;;;;;;4106812;28;19922;-88
2023/09/16 12:49:41;;;;;;;;;;;22.40;59.60;;;;;;4105748;28;19950;-89